Terminal Aerodrome Forecast
Issued by NWS

Home | Current Version | Previous Version | Text Only | Print | Product List | Glossary Off
Versions: 1 2 3 4 5 6 7 8 9 10 11 12 13 14 15 16

367
FTUS43 KPAH 211627 AAA
TAFOWB
TAF AMD
KOWB 211627Z 2116/2212 31010KT P6SM BKN025
     FM220100 VRB02KT P6SM SKC=

USA.gov is the U.S. government's official web portal to all federal, state and local government web resources and services.